createdAt,value
2019-01-19T00:02:14.109Z,21.60
2019-01-19T00:05:26.421Z,21.60
2019-01-19T00:08:42.923Z,21.60
2019-01-19T00:11:49.681Z,21.60
2019-01-19T00:14:32.619Z,21.60
2019-01-19T00:17:32.842Z,21.60
2019-01-19T00:20:36.405Z,21.60
2019-01-19T00:23:42.127Z,21.60
2019-01-19T00:26:40.812Z,21.60
2019-01-19T00:29:28.305Z,21.60
2019-01-19T00:32:21.180Z,21.60
2019-01-19T00:35:50.252Z,21.60
2019-01-19T00:38:54.696Z,21.60
2019-01-19T00:41:40.884Z,21.60
2019-01-19T00:44:27.521Z,21.60
2019-01-19T00:47:09.706Z,21.60
2019-01-19T00:49:56.329Z,21.60
2019-01-19T00:52:42.157Z,21.60
2019-01-19T00:55:44.596Z,21.60
2019-01-19T00:58:49.952Z,21.60
2019-01-19T01:01:57.839Z,21.60
2019-01-19T01:04:41.582Z,21.60
2019-01-19T01:07:38.737Z,21.60
2019-01-19T01:10:45.611Z,21.60
2019-01-19T01:13:46.307Z,21.60
2019-01-19T01:16:48.317Z,21.60
2019-01-19T01:19:40.793Z,21.60
2019-01-19T01:22:42.186Z,21.60
2019-01-19T01:26:03.939Z,21.60
2019-01-19T01:29:09.993Z,21.60
2019-01-19T01:32:06.235Z,21.60
2019-01-19T01:35:32.816Z,21.60
2019-01-19T01:38:21.726Z,21.60
2019-01-19T01:41:26.032Z,21.60
2019-01-19T01:44:15.843Z,21.60
2019-01-19T01:47:43.099Z,21.50
2019-01-19T01:50:38.684Z,21.50
2019-01-19T01:53:37.977Z,21.60
2019-01-19T01:56:12.244Z,21.60
2019-01-19T01:59:00.677Z,21.50
2019-01-19T02:02:17.033Z,21.50
2019-01-19T02:05:11.149Z,21.60
2019-01-19T02:08:15.875Z,21.60
2019-01-19T02:11:28.706Z,21.60
2019-01-19T02:14:39.290Z,21.60
2019-01-19T02:18:13.959Z,21.60
2019-01-19T02:21:07.372Z,21.50
2019-01-19T02:24:13.551Z,21.60
2019-01-19T02:27:36.057Z,21.50
2019-01-19T02:30:19.546Z,21.50
2019-01-19T02:33:31.690Z,21.50
2019-01-19T02:36:30.445Z,21.50
2019-01-19T02:39:46.464Z,21.60
2019-01-19T02:42:54.795Z,21.50
2019-01-19T02:46:08.061Z,21.50
2019-01-19T02:49:13.233Z,21.60
2019-01-19T02:52:26.773Z,21.60
2019-01-19T02:55:30.368Z,21.50
2019-01-19T02:58:41.043Z,21.50
2019-01-19T03:01:57.000Z,21.50
2019-01-19T03:04:54.207Z,21.50
2019-01-19T03:07:54.690Z,21.50
2019-01-19T03:11:01.581Z,21.50
2019-01-19T03:14:33.214Z,21.60
2019-01-19T03:17:55.864Z,21.50
2019-01-19T03:20:45.989Z,21.50
2019-01-19T03:23:53.209Z,21.50
2019-01-19T03:26:58.892Z,21.50
2019-01-19T03:30:03.420Z,21.50
2019-01-19T03:32:58.213Z,21.50
2019-01-19T03:36:04.150Z,21.50
2019-01-19T03:39:09.089Z,21.50
2019-01-19T03:42:27.195Z,21.50
2019-01-19T03:45:35.660Z,21.50
2019-01-19T03:48:30.542Z,21.50
2019-01-19T03:51:24.732Z,21.50
2019-01-19T03:54:13.265Z,21.50
2019-01-19T03:57:06.761Z,21.50
2019-01-19T04:00:09.136Z,21.50
2019-01-19T04:03:18.729Z,21.50
2019-01-19T04:06:19.612Z,21.50
2019-01-19T04:09:27.431Z,21.60
2019-01-19T04:12:33.849Z,21.50
2019-01-19T04:15:43.420Z,21.60
2019-01-19T04:18:27.580Z,21.50
2019-01-19T04:21:59.517Z,21.60
2019-01-19T04:24:34.775Z,21.60
2019-01-19T04:27:04.625Z,21.60
2019-01-19T04:29:34.476Z,21.60
2019-01-19T04:32:04.174Z,21.60
2019-01-19T04:34:34.197Z,21.60
2019-01-19T04:37:03.808Z,21.60
2019-01-19T04:39:35.364Z,21.60
2019-01-19T04:42:05.951Z,21.60
2019-01-19T04:44:35.569Z,21.60
2019-01-19T04:47:05.401Z,21.60
2019-01-19T04:49:35.238Z,21.60
2019-01-19T04:52:05.035Z,21.60
2019-01-19T04:54:34.599Z,21.60
2019-01-19T04:57:04.418Z,21.60
2019-01-19T04:59:34.130Z,21.60
2019-01-19T05:02:03.959Z,21.60
2019-01-19T05:04:33.684Z,21.60
2019-01-19T05:07:03.427Z,21.60
2019-01-19T05:09:33.251Z,21.60
2019-01-19T05:12:03.074Z,21.60
2019-01-19T05:14:32.796Z,21.60
2019-01-19T05:17:02.707Z,21.60
2019-01-19T05:19:32.341Z,21.60
2019-01-19T05:22:02.174Z,21.60
2019-01-19T05:24:32.230Z,21.60
2019-01-19T05:27:02.143Z,21.60
2019-01-19T05:29:31.871Z,21.60
2019-01-19T05:32:01.514Z,21.60
2019-01-19T05:34:31.429Z,21.60
2019-01-19T05:37:01.158Z,21.50
2019-01-19T05:39:30.688Z,21.50
2019-01-19T05:42:00.639Z,21.50
2019-01-19T05:44:30.422Z,21.50
2019-01-19T05:47:00.285Z,21.50
2019-01-19T05:49:30.188Z,21.50
2019-01-19T05:51:59.833Z,21.50
2019-01-19T05:54:29.756Z,21.50
2019-01-19T05:56:59.711Z,21.50
2019-01-19T05:59:29.522Z,21.50
2019-01-19T06:01:59.678Z,21.50
2019-01-19T06:04:29.588Z,21.50
2019-01-19T06:06:59.547Z,21.50
2019-01-19T06:09:29.141Z,21.60
2019-01-19T06:11:58.992Z,21.60
2019-01-19T06:14:28.819Z,21.60
2019-01-19T06:16:58.555Z,21.60
2019-01-19T06:19:28.853Z,21.60
2019-01-19T06:22:00.454Z,21.60
2019-01-19T06:24:30.264Z,21.60
2019-01-19T06:27:00.015Z,21.60
2019-01-19T06:29:29.836Z,21.60
2019-01-19T06:31:59.777Z,21.60
2019-01-19T06:34:29.691Z,21.70
2019-01-19T06:36:59.646Z,21.60
2019-01-19T06:39:29.454Z,21.60
2019-01-19T06:41:59.293Z,21.60
2019-01-19T06:44:29.113Z,21.60
2019-01-19T06:46:58.953Z,21.60
2019-01-19T06:49:28.973Z,21.60
2019-01-19T06:51:58.911Z,21.60
2019-01-19T06:54:29.465Z,21.60
2019-01-19T06:56:59.196Z,21.40
2019-01-19T06:59:29.008Z,21.40
2019-01-19T07:01:58.748Z,21.30
2019-01-19T07:04:28.566Z,21.40
2019-01-19T07:07:02.606Z,21.30
2019-01-19T07:09:29.955Z,21.30
2019-01-19T07:12:01.303Z,21.40
2019-01-19T07:14:31.043Z,21.40
2019-01-19T07:17:00.779Z,21.40
2019-01-19T07:19:32.085Z,21.40
2019-01-19T07:22:01.766Z,21.40
2019-01-19T07:24:31.596Z,21.50
2019-01-19T07:27:01.529Z,21.40
2019-01-19T07:29:31.347Z,21.40
2019-01-19T07:32:01.304Z,21.40
2019-01-19T07:34:31.004Z,21.40
2019-01-19T07:37:02.001Z,21.40
2019-01-19T07:39:31.788Z,21.40
2019-01-19T07:42:01.564Z,21.50
2019-01-19T07:44:31.359Z,21.40
2019-01-19T07:47:01.797Z,21.30
2019-01-19T07:49:31.742Z,20.40
2019-01-19T07:52:01.464Z,20.50
2019-01-19T07:54:31.288Z,20.70
2019-01-19T07:57:01.113Z,20.90
2019-01-19T07:59:30.968Z,21.10
2019-01-19T08:02:00.665Z,21.20
2019-01-19T08:04:30.606Z,21.30
2019-01-19T08:07:00.425Z,21.40
2019-01-19T08:09:30.179Z,21.40
2019-01-19T08:12:00.110Z,21.50
2019-01-19T08:14:29.829Z,21.50
2019-01-19T08:16:59.556Z,21.60
2019-01-19T08:19:29.402Z,21.60
2019-01-19T08:21:59.205Z,21.60
2019-01-19T08:24:29.042Z,21.50
2019-01-19T08:26:58.772Z,21.60
2019-01-19T08:29:28.505Z,21.60
2019-01-19T08:31:58.326Z,21.60
2019-01-19T08:34:28.262Z,21.50
2019-01-19T08:36:57.963Z,21.50
2019-01-19T08:39:27.905Z,21.60
2019-01-19T08:41:57.547Z,21.60
2019-01-19T08:44:27.264Z,21.60
2019-01-19T08:46:56.979Z,21.60
2019-01-19T08:49:26.539Z,21.60
2019-01-19T08:51:56.275Z,21.60
2019-01-19T08:54:25.990Z,21.60
2019-01-19T08:56:55.687Z,21.60
2019-01-19T08:59:25.627Z,21.60
2019-01-19T09:01:55.447Z,21.50
2019-01-19T09:04:25.396Z,21.60
2019-01-19T09:06:55.110Z,21.60
2019-01-19T09:09:24.856Z,21.60
2019-01-19T09:11:54.797Z,21.60
2019-01-19T09:14:24.726Z,21.60
2019-01-19T09:16:54.530Z,21.60
2019-01-19T09:19:24.273Z,21.60
2019-01-19T09:21:54.072Z,21.70
2019-01-19T09:24:28.391Z,21.70
2019-01-19T09:26:58.153Z,21.70
2019-01-19T09:29:27.990Z,21.70
2019-01-19T09:31:57.716Z,21.70
2019-01-19T09:34:27.553Z,21.70
2019-01-19T09:36:57.369Z,21.70
2019-01-19T09:39:27.196Z,21.70
2019-01-19T09:41:56.826Z,21.70
2019-01-19T09:44:26.649Z,21.70
2019-01-19T09:46:56.690Z,21.80
2019-01-19T09:49:26.626Z,21.90
2019-01-19T09:51:56.565Z,22.00
2019-01-19T09:54:26.491Z,22.00
2019-01-19T09:56:56.299Z,22.00
2019-01-19T09:59:26.105Z,22.10
2019-01-19T10:01:55.908Z,22.10
2019-01-19T10:04:25.700Z,22.10
2019-01-19T10:06:55.456Z,22.10
2019-01-19T10:09:25.476Z,22.10
2019-01-19T10:11:55.399Z,22.10
2019-01-19T10:14:25.320Z,22.20
2019-01-19T10:16:55.028Z,22.10
2019-01-19T10:19:24.898Z,22.10
2019-01-19T10:21:54.711Z,22.00
2019-01-19T10:24:24.746Z,22.00
2019-01-19T10:26:54.666Z,22.00
2019-01-19T10:29:24.614Z,22.00
2019-01-19T10:31:54.455Z,22.00
2019-01-19T10:34:24.276Z,21.90
2019-01-19T10:36:53.883Z,21.90
2019-01-19T10:39:23.723Z,21.90
2019-01-19T10:41:53.545Z,21.90
2019-01-19T10:44:23.468Z,21.90
2019-01-19T10:46:53.314Z,21.90
2019-01-19T10:49:23.140Z,21.90
2019-01-19T10:51:59.224Z,21.90
2019-01-19T10:54:24.332Z,21.90
2019-01-19T10:56:54.157Z,21.90
2019-01-19T10:59:24.114Z,21.90
2019-01-19T11:01:53.909Z,22.00
2019-01-19T11:04:23.662Z,22.00
2019-01-19T11:06:53.587Z,22.00
2019-01-19T11:09:23.398Z,22.00
2019-01-19T11:11:53.130Z,22.00
2019-01-19T11:14:22.972Z,22.00
2019-01-19T11:16:52.905Z,22.00
2019-01-19T11:19:22.717Z,22.00
2019-01-19T11:21:52.649Z,22.00
2019-01-19T11:24:22.392Z,22.00
2019-01-19T11:26:52.302Z,21.90
2019-01-19T11:29:21.945Z,21.90
2019-01-19T11:31:51.677Z,21.90
2019-01-19T11:34:21.602Z,21.90
2019-01-19T11:36:51.516Z,21.90
2019-01-19T11:39:21.461Z,21.90
2019-01-19T11:41:51.402Z,21.90
2019-01-19T11:44:21.216Z,22.00
2019-01-19T11:46:51.468Z,22.10
2019-01-19T11:49:22.081Z,22.20
2019-01-19T11:51:51.842Z,22.20
2019-01-19T11:54:21.881Z,22.20
2019-01-19T11:56:51.708Z,21.90
2019-01-19T11:59:21.399Z,21.70
2019-01-19T12:01:50.953Z,21.90
2019-01-19T12:04:20.766Z,22.10
2019-01-19T12:06:50.569Z,22.20
2019-01-19T12:09:20.429Z,22.20
2019-01-19T12:11:50.168Z,22.30
2019-01-19T12:14:19.787Z,22.30
2019-01-19T12:16:49.421Z,22.30
2019-01-19T12:19:19.128Z,22.30
2019-01-19T12:21:48.980Z,22.30
2019-01-19T12:24:18.690Z,22.40
2019-01-19T12:26:48.427Z,22.40
2019-01-19T12:29:18.352Z,22.40
2019-01-19T12:31:48.189Z,22.40
2019-01-19T12:34:18.121Z,22.40
2019-01-19T12:36:48.069Z,22.40
2019-01-19T12:39:17.752Z,22.40
2019-01-19T12:41:47.617Z,22.40
2019-01-19T12:44:17.133Z,22.40
2019-01-19T12:46:47.863Z,22.40
2019-01-19T12:49:17.702Z,22.40
2019-01-19T12:51:47.549Z,22.40
2019-01-19T12:54:17.352Z,22.40
2019-01-19T12:56:47.199Z,22.40
2019-01-19T12:59:17.021Z,22.40
2019-01-19T13:01:46.455Z,22.40
2019-01-19T13:04:16.360Z,22.40
2019-01-19T13:06:56.279Z,22.40
2019-01-19T13:09:31.895Z,22.40
2019-01-19T13:12:26.214Z,22.40
2019-01-19T13:15:26.228Z,22.40
2019-01-19T13:18:22.033Z,22.40
2019-01-19T13:21:35.310Z,22.30
2019-01-19T13:24:47.664Z,22.30
2019-01-19T13:28:07.238Z,22.30
2019-01-19T13:31:29.942Z,22.40
2019-01-19T13:34:42.782Z,22.40
2019-01-19T13:37:42.600Z,22.40
2019-01-19T13:41:02.162Z,22.40
2019-01-19T13:44:19.573Z,22.40
2019-01-19T13:47:22.981Z,22.50
2019-01-19T13:50:21.881Z,22.50
2019-01-19T13:53:40.522Z,22.50
2019-01-19T13:56:45.874Z,22.50
2019-01-19T13:59:38.590Z,22.50
2019-01-19T14:02:45.094Z,22.60
2019-01-19T14:06:14.090Z,22.50
2019-01-19T14:09:12.275Z,22.60
2019-01-19T14:12:24.495Z,22.60
2019-01-19T14:15:21.911Z,22.60
2019-01-19T14:18:38.616Z,22.60
2019-01-19T14:21:45.781Z,22.60
2019-01-19T14:24:47.449Z,22.60
2019-01-19T14:27:34.610Z,22.60
2019-01-19T14:30:51.083Z,22.60
2019-01-19T14:33:55.488Z,22.50
2019-01-19T14:36:52.591Z,22.50
2019-01-19T14:39:46.932Z,22.60
2019-01-19T14:42:43.772Z,22.60
2019-01-19T14:45:50.466Z,22.60
2019-01-19T14:48:56.976Z,22.60
2019-01-19T14:51:53.572Z,22.60
2019-01-19T14:54:49.611Z,22.60
2019-01-19T14:58:12.242Z,22.60
2019-01-19T15:01:13.121Z,22.60
2019-01-19T15:04:14.222Z,22.60
2019-01-19T15:07:46.044Z,22.60
2019-01-19T15:10:40.362Z,22.50
2019-01-19T15:13:56.358Z,22.40
2019-01-19T15:17:13.136Z,22.20
2019-01-19T15:20:09.393Z,22.10
2019-01-19T15:23:22.916Z,22.10
2019-01-19T15:26:28.488Z,22.10
2019-01-19T15:29:55.035Z,22.00
2019-01-19T15:32:54.296Z,22.00
2019-01-19T15:36:26.455Z,22.00
2019-01-19T15:39:23.304Z,22.00
2019-01-19T15:42:28.793Z,22.00
2019-01-19T15:45:34.907Z,22.00
2019-01-19T15:48:49.168Z,22.00
2019-01-19T15:52:01.654Z,21.90
2019-01-19T15:55:10.685Z,22.00
2019-01-19T15:58:02.252Z,22.00
2019-01-19T16:01:18.678Z,22.00
2019-01-19T16:04:38.406Z,22.00
2019-01-19T16:07:43.205Z,22.00
2019-01-19T16:10:42.826Z,22.00
2019-01-19T16:13:58.157Z,22.00
2019-01-19T16:17:21.057Z,22.00
2019-01-19T16:20:53.249Z,22.00
2019-01-19T16:23:33.643Z,22.10
2019-01-19T16:26:22.483Z,22.10
2019-01-19T16:29:24.174Z,22.10
2019-01-19T16:32:36.910Z,22.20
2019-01-19T16:35:47.157Z,22.20
2019-01-19T16:39:01.932Z,22.20
2019-01-19T16:42:15.869Z,22.20
2019-01-19T16:46:00.061Z,22.30
2019-01-19T16:48:54.684Z,22.30
2019-01-19T16:52:09.533Z,22.30
2019-01-19T16:55:06.784Z,22.40
2019-01-19T16:58:00.292Z,22.50
2019-01-19T17:01:12.571Z,22.50
2019-01-19T17:04:18.213Z,22.50
2019-01-19T17:07:14.030Z,22.50
2019-01-19T17:09:52.475Z,22.50
2019-01-19T17:12:36.293Z,22.50
2019-01-19T17:15:32.146Z,22.50
2019-01-19T17:18:38.878Z,22.40
2019-01-19T17:21:55.210Z,22.40
2019-01-19T17:25:08.134Z,22.40
2019-01-19T17:28:31.268Z,22.40
2019-01-19T17:31:41.844Z,22.40
2019-01-19T17:34:48.908Z,22.30
2019-01-19T17:37:43.628Z,22.30
2019-01-19T17:41:03.298Z,22.30
2019-01-19T17:44:22.040Z,22.30
2019-01-19T17:47:22.726Z,22.30
2019-01-19T17:50:39.218Z,22.30
2019-01-19T17:53:58.854Z,22.30
2019-01-19T17:56:45.762Z,22.30
2019-01-19T17:59:56.129Z,22.30
2019-01-19T18:02:59.211Z,22.30
2019-01-19T18:05:56.810Z,22.20
2019-01-19T18:09:01.702Z,22.30
2019-01-19T18:11:48.524Z,22.20
2019-01-19T18:14:45.586Z,22.20
2019-01-19T18:17:53.281Z,22.20
2019-01-19T18:20:57.957Z,22.30
2019-01-19T18:24:13.057Z,22.40
2019-01-19T18:27:17.272Z,22.40
2019-01-19T18:30:17.925Z,22.40
2019-01-19T18:33:15.925Z,22.50
2019-01-19T18:36:14.877Z,22.50
2019-01-19T18:39:35.272Z,22.50
2019-01-19T18:42:43.138Z,22.50
2019-01-19T18:45:52.407Z,22.50
2019-01-19T18:48:50.178Z,22.50
2019-01-19T18:52:03.806Z,22.50
2019-01-19T18:54:50.938Z,22.50
2019-01-19T18:58:09.877Z,22.50
2019-01-19T19:01:24.345Z,22.50
2019-01-19T19:04:15.237Z,22.50
2019-01-19T19:07:08.403Z,22.50
2019-01-19T19:10:17.638Z,22.50
2019-01-19T19:13:32.162Z,22.50
2019-01-19T19:16:50.774Z,22.50
2019-01-19T19:19:40.716Z,22.50
2019-01-19T19:22:42.589Z,22.50
2019-01-19T19:25:59.380Z,22.50
2019-01-19T19:28:56.082Z,22.50
2019-01-19T19:31:40.415Z,22.50
2019-01-19T19:34:48.818Z,22.50
2019-01-19T19:37:42.977Z,22.50
2019-01-19T19:40:45.134Z,22.50
2019-01-19T19:43:38.547Z,22.50
2019-01-19T19:46:34.786Z,22.50
2019-01-19T19:49:24.146Z,22.50
2019-01-19T19:52:04.229Z,22.50
2019-01-19T19:54:34.736Z,22.50
2019-01-19T19:57:04.395Z,22.60
2019-01-19T19:59:34.390Z,22.50
2019-01-19T20:02:04.251Z,22.60
2019-01-19T20:04:34.045Z,22.70
2019-01-19T20:07:03.788Z,22.70
2019-01-19T20:09:33.634Z,22.70
2019-01-19T20:12:07.506Z,22.80
2019-01-19T20:14:37.292Z,22.80
2019-01-19T20:17:07.415Z,22.90
2019-01-19T20:19:37.238Z,22.80
2019-01-19T20:22:07.069Z,22.90
2019-01-19T20:24:36.943Z,22.90
2019-01-19T20:27:06.712Z,22.90
2019-01-19T20:29:36.450Z,22.90
2019-01-19T20:32:06.494Z,22.90
2019-01-19T20:34:36.119Z,22.90
2019-01-19T20:37:05.918Z,22.90
2019-01-19T20:39:35.358Z,22.90
2019-01-19T20:42:05.313Z,22.90
2019-01-19T20:44:35.109Z,22.90
2019-01-19T20:47:04.948Z,22.90
2019-01-19T20:49:34.883Z,22.80
2019-01-19T20:52:04.704Z,22.90
2019-01-19T20:54:35.850Z,22.80
2019-01-19T20:57:05.413Z,22.90
2019-01-19T20:59:35.340Z,22.80
2019-01-19T21:02:05.142Z,22.80
2019-01-19T21:04:34.870Z,22.80
2019-01-19T21:07:04.818Z,22.80
2019-01-19T21:09:34.448Z,22.70
2019-01-19T21:12:04.171Z,22.70
2019-01-19T21:14:34.081Z,22.70
2019-01-19T21:17:03.932Z,22.70
2019-01-19T21:19:33.884Z,22.70
2019-01-19T21:22:03.683Z,22.70
2019-01-19T21:24:33.416Z,22.70
2019-01-19T21:27:03.345Z,22.60
2019-01-19T21:29:33.171Z,22.60
2019-01-19T21:32:03.069Z,22.60
2019-01-19T21:34:32.648Z,22.50
2019-01-19T21:37:03.263Z,22.50
2019-01-19T21:39:33.003Z,22.40
2019-01-19T21:42:02.930Z,22.40
2019-01-19T21:44:32.765Z,22.40
2019-01-19T21:47:02.586Z,22.40
2019-01-19T21:49:34.229Z,22.40
2019-01-19T21:52:03.797Z,22.30
2019-01-19T21:54:33.731Z,22.30
2019-01-19T21:57:03.448Z,22.30
2019-01-19T21:59:33.376Z,22.30
2019-01-19T22:02:03.308Z,22.30
2019-01-19T22:04:33.042Z,22.20
2019-01-19T22:07:02.959Z,22.30
2019-01-19T22:09:32.496Z,22.30
2019-01-19T22:12:02.223Z,22.30
2019-01-19T22:14:31.766Z,22.30
2019-01-19T22:17:01.547Z,22.30
2019-01-19T22:19:31.090Z,22.30
2019-01-19T22:22:00.700Z,22.30
2019-01-19T22:24:30.349Z,22.30
2019-01-19T22:27:00.485Z,22.30
2019-01-19T22:29:30.211Z,22.30
2019-01-19T22:32:00.143Z,22.30
2019-01-19T22:34:29.974Z,22.30
2019-01-19T22:36:59.591Z,22.20
2019-01-19T22:39:29.434Z,22.20
2019-01-19T22:41:59.350Z,22.10
2019-01-19T22:44:29.277Z,22.00
2019-01-19T22:46:58.898Z,22.00
2019-01-19T22:49:28.728Z,22.00
2019-01-19T22:51:58.560Z,22.00
2019-01-19T22:54:28.609Z,22.00
2019-01-19T22:56:58.421Z,21.90
2019-01-19T22:59:28.275Z,21.90
2019-01-19T23:02:00.836Z,21.90
2019-01-19T23:04:31.794Z,21.90
2019-01-19T23:07:01.746Z,21.90
2019-01-19T23:09:31.474Z,21.90
2019-01-19T23:12:01.299Z,21.80
2019-01-19T23:14:31.921Z,21.80
2019-01-19T23:17:01.668Z,21.80
2019-01-19T23:19:31.313Z,21.80
2019-01-19T23:22:01.340Z,21.70
2019-01-19T23:24:31.277Z,21.80
2019-01-19T23:27:07.627Z,21.80
2019-01-19T23:29:37.382Z,21.70
2019-01-19T23:32:07.290Z,21.80
2019-01-19T23:34:36.930Z,21.80
2019-01-19T23:37:07.571Z,21.70
2019-01-19T23:39:37.397Z,21.70
2019-01-19T23:42:07.212Z,21.70
2019-01-19T23:44:37.233Z,21.80
2019-01-19T23:47:07.193Z,21.70
2019-01-19T23:49:38.130Z,21.80
2019-01-19T23:52:07.889Z,21.70
2019-01-19T23:54:37.823Z,21.80
2019-01-19T23:57:07.756Z,21.80
2019-01-19T23:59:37.603Z,21.80
